createdAt,value
2019-03-22T00:02:15.236Z,9.90
2019-03-22T00:04:48.680Z,9.00
2019-03-22T00:07:22.098Z,9.90
2019-03-22T00:09:55.457Z,10.83
2019-03-22T00:12:28.939Z,8.20
2019-03-22T00:15:02.365Z,7.90
2019-03-22T00:17:35.797Z,10.47
2019-03-22T00:20:09.503Z,10.63
2019-03-22T00:22:42.916Z,8.80
2019-03-22T00:25:16.342Z,9.73
2019-03-22T00:27:49.769Z,10.07
2019-03-22T00:30:23.179Z,8.30
2019-03-22T00:32:56.552Z,11.10
2019-03-22T00:35:29.894Z,7.97
2019-03-22T00:38:03.335Z,8.00
2019-03-22T00:40:36.684Z,9.87
2019-03-22T00:43:10.058Z,8.70
2019-03-22T00:45:46.300Z,8.70
2019-03-22T00:48:19.653Z,9.40
2019-03-22T00:50:53.218Z,7.33
2019-03-22T00:53:26.574Z,9.37
2019-03-22T00:56:00.117Z,10.73
2019-03-22T00:58:33.491Z,8.57
2019-03-22T01:01:06.889Z,7.70
2019-03-22T01:03:40.312Z,9.33
2019-03-22T01:06:13.670Z,6.27
2019-03-22T01:08:47.058Z,11.00
2019-03-22T01:11:20.481Z,9.20
2019-03-22T01:13:54.273Z,8.83
2019-03-22T01:16:27.609Z,6.67
2019-03-22T01:19:01.009Z,7.00
2019-03-22T01:21:34.403Z,10.07
2019-03-22T01:24:07.784Z,6.97
2019-03-22T01:26:41.112Z,8.50
2019-03-22T01:29:14.479Z,8.43
2019-03-22T01:31:47.883Z,9.30
2019-03-22T01:34:21.308Z,7.00
2019-03-22T01:36:54.643Z,8.40
2019-03-22T01:39:27.833Z,7.67
2019-03-22T01:42:01.218Z,6.97
2019-03-22T01:44:34.652Z,9.97
2019-03-22T01:47:07.986Z,7.70
2019-03-22T01:49:41.374Z,10.67
2019-03-22T01:52:14.823Z,6.10
2019-03-22T01:54:48.177Z,8.60
2019-03-22T01:57:21.526Z,8.97
2019-03-22T01:59:54.960Z,8.37
2019-03-22T02:02:28.326Z,8.50
2019-03-22T02:05:01.824Z,12.27
2019-03-22T02:07:35.220Z,8.73
2019-03-22T02:10:10.783Z,9.77
2019-03-22T02:12:44.259Z,8.83
2019-03-22T02:15:17.651Z,9.30
2019-03-22T02:17:51.160Z,8.07
2019-03-22T02:20:24.511Z,7.43
2019-03-22T02:22:57.840Z,8.67
2019-03-22T02:25:31.273Z,16.23
2019-03-22T02:28:04.725Z,10.73
2019-03-22T02:30:38.043Z,11.97
2019-03-22T02:33:11.484Z,11.40
2019-03-22T02:35:44.919Z,10.87
2019-03-22T02:38:18.334Z,10.20
2019-03-22T02:40:51.776Z,10.33
2019-03-22T02:43:25.209Z,11.80
2019-03-22T02:45:58.602Z,11.63
2019-03-22T02:48:32.015Z,9.30
2019-03-22T02:51:05.519Z,12.03
2019-03-22T02:53:38.876Z,11.27
2019-03-22T02:56:12.283Z,14.67
2019-03-22T02:58:45.733Z,11.37
2019-03-22T03:01:19.071Z,13.73
2019-03-22T03:03:52.587Z,10.23
2019-03-22T03:06:25.991Z,11.60
2019-03-22T03:08:59.429Z,10.73
2019-03-22T03:11:32.764Z,14.00
2019-03-22T03:14:06.195Z,11.13
2019-03-22T03:16:39.534Z,9.57
2019-03-22T03:19:12.962Z,10.13
2019-03-22T03:21:46.308Z,13.17
2019-03-22T03:24:19.639Z,9.23
2019-03-22T03:26:53.048Z,10.00
2019-03-22T03:29:26.475Z,12.30
2019-03-22T03:31:59.797Z,12.27
2019-03-22T03:34:33.168Z,10.50
2019-03-22T03:37:06.557Z,9.33
2019-03-22T03:39:39.919Z,10.40
2019-03-22T03:42:13.255Z,11.40
2019-03-22T03:44:46.659Z,13.27
2019-03-22T03:47:20.055Z,14.13
2019-03-22T03:49:53.502Z,11.23
2019-03-22T03:52:26.861Z,14.00
2019-03-22T03:55:00.545Z,11.30
2019-03-22T03:57:33.936Z,10.87
2019-03-22T04:00:09.976Z,12.03
2019-03-22T04:02:43.337Z,11.87
2019-03-22T04:05:16.712Z,10.33
2019-03-22T04:07:50.077Z,8.90
2019-03-22T04:10:23.485Z,8.67
2019-03-22T04:12:56.898Z,9.23
2019-03-22T04:15:30.266Z,8.63
2019-03-22T04:18:03.745Z,11.57
2019-03-22T04:20:37.104Z,9.63
2019-03-22T04:23:10.514Z,13.17
2019-03-22T04:25:44.784Z,9.33
2019-03-22T04:28:19.001Z,9.30
2019-03-22T04:30:52.423Z,7.47
2019-03-22T04:33:25.782Z,10.30
2019-03-22T04:35:59.223Z,9.80
2019-03-22T04:38:32.556Z,6.77
2019-03-22T04:41:05.969Z,8.27
2019-03-22T04:43:39.301Z,7.67
2019-03-22T04:46:13.081Z,9.93
2019-03-22T04:48:47.651Z,8.50
2019-03-22T04:51:21.278Z,10.40
2019-03-22T04:53:56.155Z,9.23
2019-03-22T04:56:31.034Z,8.20
2019-03-22T04:59:05.886Z,14.17
2019-03-22T05:01:39.917Z,9.80
2019-03-22T05:04:13.933Z,9.43
2019-03-22T05:06:47.788Z,10.27
2019-03-22T05:09:21.312Z,11.47
2019-03-22T05:11:55.450Z,15.33
2019-03-22T05:14:29.477Z,12.03
2019-03-22T05:17:03.281Z,8.30
2019-03-22T05:19:38.370Z,11.90
2019-03-22T05:22:12.819Z,14.87
2019-03-22T05:24:47.813Z,11.40
2019-03-22T05:27:21.949Z,14.77
2019-03-22T05:29:56.729Z,10.07
2019-03-22T05:32:30.172Z,11.73
2019-03-22T05:35:03.565Z,8.63
2019-03-22T05:37:36.953Z,11.60
2019-03-22T05:40:10.379Z,14.23
2019-03-22T05:42:43.726Z,13.00
2019-03-22T05:45:17.060Z,13.90
2019-03-22T05:47:50.550Z,11.40
2019-03-22T05:50:23.902Z,11.10
2019-03-22T05:52:57.329Z,13.13
2019-03-22T05:55:30.692Z,13.67
2019-03-22T05:58:04.048Z,11.30
2019-03-22T06:00:37.381Z,10.63
2019-03-22T06:03:10.749Z,15.83
2019-03-22T06:05:44.106Z,14.00
2019-03-22T06:08:17.460Z,12.23
2019-03-22T06:10:50.790Z,11.53
2019-03-22T06:13:24.204Z,13.60
2019-03-22T06:15:57.534Z,11.23
2019-03-22T06:18:31.069Z,11.77
2019-03-22T06:21:04.546Z,10.63
2019-03-22T06:23:37.932Z,10.93
2019-03-22T06:26:11.363Z,12.73
2019-03-22T06:28:44.803Z,11.70
2019-03-22T06:31:20.689Z,10.00
2019-03-22T06:33:53.288Z,13.67
2019-03-22T06:36:26.714Z,13.13
2019-03-22T06:39:00.053Z,13.63
2019-03-22T06:41:33.419Z,12.13
2019-03-22T06:44:06.947Z,12.83
2019-03-22T06:46:40.353Z,9.57
2019-03-22T06:49:13.686Z,14.00
2019-03-22T06:51:47.122Z,13.30
2019-03-22T06:54:30.929Z,13.57
2019-03-22T06:56:55.664Z,14.80
2019-03-22T06:59:29.015Z,16.00
2019-03-22T07:02:02.432Z,14.23
2019-03-22T07:04:35.781Z,13.13
2019-03-22T07:07:09.229Z,14.17
2019-03-22T07:09:42.636Z,14.37
2019-03-22T07:12:16.010Z,10.87
2019-03-22T07:14:49.435Z,10.27
2019-03-22T07:17:22.905Z,11.67
2019-03-22T07:19:56.388Z,9.90
2019-03-22T07:22:29.761Z,10.13
2019-03-22T07:25:03.777Z,10.87
2019-03-22T07:27:37.136Z,10.77
2019-03-22T07:30:18.862Z,12.30
2019-03-22T07:32:50.859Z,10.00
2019-03-22T07:35:24.218Z,11.83
2019-03-22T07:37:57.663Z,10.23
2019-03-22T07:40:31.049Z,11.37
2019-03-22T07:43:04.563Z,10.77
2019-03-22T07:45:37.980Z,9.83
2019-03-22T07:48:11.608Z,12.77
2019-03-22T07:50:45.014Z,9.47
2019-03-22T07:53:18.374Z,9.47
2019-03-22T07:55:51.760Z,12.33
2019-03-22T07:58:25.192Z,10.57
2019-03-22T08:00:58.548Z,10.40
2019-03-22T08:03:31.910Z,14.93
2019-03-22T08:06:05.391Z,9.43
2019-03-22T08:08:38.878Z,9.63
2019-03-22T08:11:12.360Z,12.77
2019-03-22T08:13:45.876Z,13.03
2019-03-22T08:16:19.211Z,10.63
2019-03-22T08:18:52.673Z,13.17
2019-03-22T08:21:26.009Z,11.10
2019-03-22T08:23:59.550Z,10.13
2019-03-22T08:26:32.974Z,11.07
2019-03-22T08:29:06.312Z,12.33
2019-03-22T08:31:39.718Z,14.87
2019-03-22T08:34:13.097Z,16.50
2019-03-22T08:36:46.510Z,12.10
2019-03-22T08:39:20.053Z,14.10
2019-03-22T08:41:53.509Z,17.40
2019-03-22T08:44:26.873Z,11.67
2019-03-22T08:47:00.277Z,11.73
2019-03-22T08:49:33.772Z,11.50
2019-03-22T08:52:07.244Z,13.60
2019-03-22T08:54:40.613Z,16.37
2019-03-22T08:57:14.027Z,12.93
2019-03-22T08:59:47.407Z,13.63
2019-03-22T09:02:20.970Z,12.53
2019-03-22T09:04:54.434Z,11.53
2019-03-22T09:07:27.895Z,11.93
2019-03-22T09:10:01.447Z,12.07
2019-03-22T09:12:34.735Z,10.60
2019-03-22T09:15:09.120Z,11.70
2019-03-22T09:17:42.472Z,12.33
2019-03-22T09:20:15.901Z,11.60
2019-03-22T09:22:49.379Z,13.00
2019-03-22T09:25:22.777Z,11.80
2019-03-22T09:27:56.143Z,14.57
2019-03-22T09:30:29.655Z,9.20
2019-03-22T09:33:03.133Z,17.90
2019-03-22T09:35:36.500Z,10.43
2019-03-22T09:38:13.162Z,10.00
2019-03-22T09:40:45.149Z,11.60
2019-03-22T09:43:18.477Z,10.17
2019-03-22T09:45:51.898Z,10.07
2019-03-22T09:48:25.267Z,11.00
2019-03-22T09:50:58.652Z,9.20
2019-03-22T09:53:32.122Z,11.97
2019-03-22T09:56:05.527Z,12.40
2019-03-22T09:58:38.863Z,10.33
2019-03-22T10:01:23.101Z,10.70
2019-03-22T10:03:47.352Z,9.70
2019-03-22T10:06:20.786Z,12.57
2019-03-22T10:08:54.117Z,10.93
2019-03-22T10:11:27.497Z,8.83
2019-03-22T10:14:00.827Z,8.77
2019-03-22T10:16:34.378Z,9.07
2019-03-22T10:19:07.887Z,11.37
2019-03-22T10:21:41.301Z,9.93
2019-03-22T10:24:14.678Z,11.43
2019-03-22T10:26:48.048Z,16.93
2019-03-22T10:29:21.425Z,20.03
2019-03-22T10:31:57.919Z,11.63
2019-03-22T10:34:31.370Z,10.80
2019-03-22T10:37:04.788Z,9.90
2019-03-22T10:39:38.126Z,12.30
2019-03-22T10:42:11.509Z,11.33
2019-03-22T10:44:44.954Z,11.03
2019-03-22T10:47:18.426Z,15.10
2019-03-22T10:49:52.017Z,7.67
2019-03-22T10:52:25.429Z,7.47
2019-03-22T10:55:12.310Z,9.53
2019-03-22T10:57:33.906Z,9.00
2019-03-22T11:00:13.222Z,8.40
2019-03-22T11:02:46.679Z,8.33
2019-03-22T11:05:20.058Z,6.60
2019-03-22T11:07:53.479Z,6.77
2019-03-22T11:10:26.969Z,7.63
2019-03-22T11:13:00.308Z,7.30
2019-03-22T11:15:33.766Z,6.90
2019-03-22T11:18:07.277Z,8.07
2019-03-22T11:20:40.728Z,7.90
2019-03-22T11:23:14.078Z,10.27
2019-03-22T11:25:47.459Z,7.53
2019-03-22T11:28:20.797Z,5.77
2019-03-22T11:30:54.561Z,7.47
2019-03-22T11:33:29.377Z,6.27
2019-03-22T11:36:02.864Z,7.70
2019-03-22T11:38:36.267Z,8.33
2019-03-22T11:41:09.699Z,5.87
2019-03-22T11:43:43.023Z,8.33
2019-03-22T11:46:16.530Z,8.80
2019-03-22T11:48:49.945Z,7.67
2019-03-22T11:51:23.376Z,7.13
2019-03-22T11:53:56.785Z,8.23
2019-03-22T11:56:30.153Z,6.50
2019-03-22T11:59:03.649Z,7.73
2019-03-22T12:01:37.006Z,6.07
2019-03-22T12:04:11.896Z,7.30
2019-03-22T12:06:45.586Z,7.20
2019-03-22T12:09:18.985Z,8.90
2019-03-22T12:11:52.417Z,9.37
2019-03-22T12:14:25.752Z,8.33
2019-03-22T12:16:59.343Z,7.00
2019-03-22T12:19:32.693Z,7.03
2019-03-22T12:22:06.097Z,8.60
2019-03-22T12:24:39.562Z,8.07
2019-03-22T12:27:13.011Z,8.20
2019-03-22T12:29:46.520Z,8.00
2019-03-22T12:32:19.888Z,11.87
2019-03-22T12:34:53.221Z,7.67
2019-03-22T12:37:26.610Z,6.13
2019-03-22T12:40:00.011Z,7.07
2019-03-22T12:42:33.506Z,7.23
2019-03-22T12:45:18.674Z,5.33
2019-03-22T12:47:53.197Z,4.90
2019-03-22T12:50:26.626Z,5.50
2019-03-22T12:53:00.013Z,6.10
2019-03-22T12:55:33.469Z,6.80
2019-03-22T12:58:06.972Z,6.20
2019-03-22T13:00:40.619Z,5.60
2019-03-22T13:03:13.981Z,7.00
2019-03-22T13:05:47.346Z,5.73
2019-03-22T13:08:20.711Z,4.57
2019-03-22T13:10:54.129Z,4.73
2019-03-22T13:13:27.567Z,5.30
2019-03-22T13:16:01.041Z,3.93
2019-03-22T13:18:34.486Z,4.17
2019-03-22T13:21:07.808Z,3.50
2019-03-22T13:23:41.168Z,5.57
2019-03-22T13:26:14.569Z,3.90
2019-03-22T13:28:47.990Z,3.83
2019-03-22T13:31:21.357Z,3.33
2019-03-22T13:33:54.742Z,2.83
2019-03-22T13:36:28.076Z,4.20
2019-03-22T13:39:01.438Z,4.10
2019-03-22T13:41:34.770Z,4.03
2019-03-22T13:44:08.136Z,3.20
2019-03-22T13:46:41.500Z,4.20
2019-03-22T13:49:14.912Z,3.93
2019-03-22T13:51:48.271Z,2.60
2019-03-22T13:54:21.722Z,3.83
2019-03-22T13:56:55.074Z,5.37
2019-03-22T13:59:28.530Z,4.00
2019-03-22T14:02:01.959Z,3.33
2019-03-22T14:04:35.324Z,4.53
2019-03-22T14:07:08.812Z,4.37
2019-03-22T14:09:42.239Z,3.33
2019-03-22T14:12:15.568Z,3.63
2019-03-22T14:14:49.013Z,5.13
2019-03-22T14:17:22.432Z,3.80
2019-03-22T14:19:56.256Z,3.20
2019-03-22T14:22:29.670Z,6.07
2019-03-22T14:25:10.516Z,3.27
2019-03-22T14:27:43.914Z,3.37
2019-03-22T14:30:17.656Z,3.50
2019-03-22T14:32:57.135Z,3.70
2019-03-22T14:35:30.572Z,6.07
2019-03-22T14:38:04.038Z,5.80
2019-03-22T14:40:37.462Z,2.70
2019-03-22T14:43:10.884Z,3.60
2019-03-22T14:45:52.544Z,4.93
2019-03-22T14:48:25.980Z,2.90
2019-03-22T14:50:59.430Z,3.00
2019-03-22T14:53:32.924Z,2.40
2019-03-22T14:56:06.445Z,2.93
2019-03-22T14:58:39.768Z,2.97
2019-03-22T15:01:14.001Z,2.53
2019-03-22T15:03:47.428Z,2.50
2019-03-22T15:06:20.949Z,4.80
2019-03-22T15:08:54.324Z,4.20
2019-03-22T15:11:27.850Z,3.40
2019-03-22T15:14:05.552Z,3.17
2019-03-22T15:16:55.536Z,4.37
2019-03-22T15:19:38.449Z,7.07
2019-03-22T15:22:38.048Z,3.13
2019-03-22T15:25:19.631Z,3.53
2019-03-22T15:27:54.679Z,3.67
2019-03-22T15:30:46.328Z,3.63
2019-03-22T15:33:34.133Z,3.43
2019-03-22T15:36:24.660Z,4.77
2019-03-22T15:39:22.545Z,3.53
2019-03-22T15:41:56.434Z,3.77
2019-03-22T15:44:29.816Z,4.60
2019-03-22T15:47:05.041Z,3.97
2019-03-22T15:49:39.737Z,3.97
2019-03-22T15:52:13.190Z,4.30
2019-03-22T15:54:46.657Z,4.67
2019-03-22T15:57:20.067Z,3.90
2019-03-22T15:59:53.433Z,5.73
2019-03-22T16:02:26.929Z,4.07
2019-03-22T16:05:00.309Z,4.77
2019-03-22T16:07:33.702Z,4.37
2019-03-22T16:10:08.715Z,3.93
2019-03-22T16:12:42.203Z,4.50
2019-03-22T16:15:15.791Z,4.10
2019-03-22T16:17:49.235Z,6.47
2019-03-22T16:20:22.669Z,7.70
2019-03-22T16:22:56.002Z,7.90
2019-03-22T16:25:29.364Z,7.33
2019-03-22T16:28:02.787Z,7.23
2019-03-22T16:30:36.239Z,5.57
2019-03-22T16:33:09.590Z,8.23
2019-03-22T16:35:43.068Z,6.63
2019-03-22T16:38:16.488Z,7.30
2019-03-22T16:40:49.928Z,5.77
2019-03-22T16:43:23.267Z,7.63
2019-03-22T16:45:56.711Z,6.63
2019-03-22T16:48:30.204Z,5.17
2019-03-22T16:51:03.711Z,5.50
2019-03-22T16:53:37.088Z,4.50
2019-03-22T16:56:10.599Z,5.23
2019-03-22T16:58:43.948Z,5.93
2019-03-22T17:01:18.705Z,5.93
2019-03-22T17:03:52.048Z,6.37
2019-03-22T17:06:25.490Z,10.90
2019-03-22T17:09:00.448Z,6.17
2019-03-22T17:11:33.942Z,7.03
2019-03-22T17:14:07.441Z,7.97
2019-03-22T17:16:40.892Z,9.33
2019-03-22T17:19:14.297Z,8.53
2019-03-22T17:21:48.113Z,8.50
2019-03-22T17:24:21.449Z,10.20
2019-03-22T17:26:54.941Z,10.80
2019-03-22T17:29:28.446Z,7.63
2019-03-22T17:32:01.874Z,6.97
2019-03-22T17:34:35.219Z,8.77
2019-03-22T17:37:08.574Z,7.00
2019-03-22T17:39:41.993Z,8.83
2019-03-22T17:42:15.515Z,8.77
2019-03-22T17:44:48.879Z,9.67
2019-03-22T17:47:22.237Z,9.30
2019-03-22T17:49:55.769Z,7.70
2019-03-22T17:52:29.213Z,9.50
2019-03-22T17:55:02.701Z,10.53
2019-03-22T17:57:36.220Z,8.10
2019-03-22T18:00:16.562Z,13.73
2019-03-22T18:02:49.959Z,8.70
2019-03-22T18:05:23.318Z,12.47
2019-03-22T18:07:56.935Z,14.87
2019-03-22T18:10:30.346Z,9.93
2019-03-22T18:13:03.796Z,8.97
2019-03-22T18:15:37.224Z,8.07
2019-03-22T18:18:10.600Z,9.43
2019-03-22T18:20:44.132Z,5.90
2019-03-22T18:23:17.599Z,7.80
2019-03-22T18:25:51.112Z,5.17
2019-03-22T18:28:24.521Z,7.60
2019-03-22T18:30:57.953Z,5.43
2019-03-22T18:33:31.359Z,6.70
2019-03-22T18:36:04.804Z,7.67
2019-03-22T18:38:38.347Z,6.30
2019-03-22T18:41:11.835Z,4.70
2019-03-22T18:43:45.182Z,7.63
2019-03-22T18:46:18.626Z,6.60
2019-03-22T18:48:52.037Z,6.17
2019-03-22T18:51:25.551Z,10.03
2019-03-22T18:53:59.051Z,7.73
2019-03-22T18:56:32.410Z,8.97
2019-03-22T18:59:05.894Z,6.87
2019-03-22T19:01:39.408Z,4.90
2019-03-22T19:04:12.865Z,8.63
2019-03-22T19:06:46.266Z,8.23
2019-03-22T19:09:19.686Z,9.90
2019-03-22T19:11:53.136Z,8.77
2019-03-22T19:14:26.551Z,7.10
2019-03-22T19:17:00.014Z,7.17
2019-03-22T19:19:33.451Z,10.53
2019-03-22T19:22:06.893Z,13.83
2019-03-22T19:24:40.387Z,10.60
2019-03-22T19:27:13.828Z,13.90
2019-03-22T19:29:47.269Z,19.57
2019-03-22T19:32:20.649Z,15.37
2019-03-22T19:34:54.738Z,21.17
2019-03-22T19:37:28.302Z,13.37
2019-03-22T19:40:01.728Z,13.50
2019-03-22T19:42:35.205Z,13.13
2019-03-22T19:45:10.179Z,15.70
2019-03-22T19:47:43.719Z,15.27
2019-03-22T19:50:17.685Z,13.47
2019-03-22T19:52:51.132Z,12.90
2019-03-22T19:55:24.505Z,15.87
2019-03-22T19:57:57.865Z,13.20
2019-03-22T20:00:31.283Z,9.43
2019-03-22T20:03:04.843Z,11.53
2019-03-22T20:05:38.306Z,12.50
2019-03-22T20:08:13.809Z,13.97
2019-03-22T20:10:46.988Z,12.93
2019-03-22T20:13:22.146Z,12.57
2019-03-22T20:15:55.741Z,9.97
2019-03-22T20:18:29.264Z,10.03
2019-03-22T20:21:02.630Z,9.73
2019-03-22T20:23:36.044Z,9.13
2019-03-22T20:26:09.378Z,10.50
2019-03-22T20:28:42.903Z,11.00
2019-03-22T20:31:16.315Z,13.03
2019-03-22T20:33:49.744Z,10.63
2019-03-22T20:36:23.170Z,12.90
2019-03-22T20:38:56.545Z,19.67
2019-03-22T20:41:29.902Z,13.87
2019-03-22T20:44:03.313Z,16.03
2019-03-22T20:46:36.657Z,13.03
2019-03-22T20:49:10.135Z,12.50
2019-03-22T20:51:43.475Z,14.80
2019-03-22T20:54:16.935Z,11.37
2019-03-22T20:56:50.448Z,15.73
2019-03-22T20:59:23.793Z,12.10
2019-03-22T21:01:57.152Z,13.40
2019-03-22T21:04:30.564Z,12.47
2019-03-22T21:07:04.121Z,13.87
2019-03-22T21:09:37.699Z,12.70
2019-03-22T21:12:11.227Z,14.83
2019-03-22T21:14:44.660Z,15.20
2019-03-22T21:17:18.031Z,16.40
2019-03-22T21:19:51.371Z,14.50
2019-03-22T21:22:24.876Z,16.20
2019-03-22T21:24:58.311Z,16.00
2019-03-22T21:27:31.815Z,17.03
2019-03-22T21:30:07.378Z,15.03
2019-03-22T21:32:45.121Z,13.10
2019-03-22T21:35:22.418Z,12.53
2019-03-22T21:37:51.311Z,10.63
2019-03-22T21:40:24.687Z,10.97
2019-03-22T21:42:58.149Z,9.93
2019-03-22T21:45:31.660Z,11.83
2019-03-22T21:48:05.098Z,8.80
2019-03-22T21:50:38.591Z,12.03
2019-03-22T21:53:12.029Z,8.53
2019-03-22T21:55:45.530Z,9.70
2019-03-22T21:58:19.050Z,9.17
2019-03-22T22:00:52.551Z,8.43
2019-03-22T22:03:26.082Z,7.67
2019-03-22T22:05:59.583Z,8.80
2019-03-22T22:08:33.049Z,10.70
2019-03-22T22:11:06.447Z,12.23
2019-03-22T22:13:39.914Z,10.20
2019-03-22T22:16:13.333Z,10.10
2019-03-22T22:18:46.842Z,9.87
2019-03-22T22:21:20.338Z,10.37
2019-03-22T22:23:53.713Z,6.90
2019-03-22T22:26:27.195Z,8.63
2019-03-22T22:29:00.571Z,7.97
2019-03-22T22:31:34.034Z,8.83
2019-03-22T22:34:07.410Z,8.47
2019-03-22T22:36:40.827Z,7.43
2019-03-22T22:39:14.238Z,7.13
2019-03-22T22:41:47.569Z,8.47
2019-03-22T22:44:20.992Z,7.63
2019-03-22T22:46:54.414Z,8.63
2019-03-22T22:49:27.808Z,8.63
2019-03-22T22:52:01.144Z,6.73
2019-03-22T22:54:34.575Z,8.87
2019-03-22T22:57:07.981Z,8.70
2019-03-22T22:59:41.358Z,9.80
2019-03-22T23:02:14.786Z,8.03
2019-03-22T23:04:48.286Z,8.17
2019-03-22T23:07:21.627Z,9.33
2019-03-22T23:09:54.997Z,9.27
2019-03-22T23:12:28.389Z,9.67
2019-03-22T23:15:01.841Z,7.60
2019-03-22T23:17:35.990Z,8.47
2019-03-22T23:20:10.561Z,9.27
2019-03-22T23:22:43.906Z,7.53
2019-03-22T23:25:17.424Z,6.70
2019-03-22T23:27:50.785Z,8.07
2019-03-22T23:30:24.223Z,6.83
2019-03-22T23:32:57.704Z,9.77
2019-03-22T23:35:31.123Z,9.20
2019-03-22T23:38:04.559Z,7.80
2019-03-22T23:40:37.975Z,7.70
2019-03-22T23:43:11.309Z,12.40
2019-03-22T23:45:44.883Z,7.43
2019-03-22T23:48:18.210Z,8.20
2019-03-22T23:50:51.633Z,8.50
2019-03-22T23:53:25.059Z,14.17
2019-03-22T23:55:58.497Z,11.10
2019-03-22T23:58:31.836Z,14.90
